createdAt,value
2018-06-08T00:00:21.981Z,0.00
2018-06-08T00:01:21.864Z,0.00
2018-06-08T00:02:21.737Z,0.00
2018-06-08T00:03:21.616Z,0.00
2018-06-08T00:04:21.495Z,0.00
2018-06-08T00:05:21.370Z,0.00
2018-06-08T00:06:21.252Z,0.00
2018-06-08T00:07:21.180Z,0.00
2018-06-08T00:08:21.006Z,0.00
2018-06-08T00:09:20.883Z,0.00
2018-06-08T00:10:20.760Z,0.00
2018-06-08T00:11:20.641Z,0.00
2018-06-08T00:12:20.518Z,0.00
2018-06-08T00:13:20.395Z,0.00
2018-06-08T00:14:20.272Z,0.00
2018-06-08T00:15:20.149Z,0.00
2018-06-08T00:16:20.029Z,0.00
2018-06-08T00:17:19.907Z,0.00
2018-06-08T00:18:19.782Z,0.00
2018-06-08T00:19:19.660Z,0.00
2018-06-08T00:20:19.542Z,0.00
2018-06-08T00:21:19.418Z,0.00
2018-06-08T00:22:19.294Z,0.00
2018-06-08T00:23:19.173Z,0.00
2018-06-08T00:24:19.048Z,0.00
2018-06-08T00:25:18.926Z,0.00
2018-06-08T00:26:18.805Z,0.00
2018-06-08T00:27:18.684Z,0.00
2018-06-08T00:28:18.559Z,0.00
2018-06-08T00:29:18.498Z,0.00
2018-06-08T00:30:18.321Z,0.00
2018-06-08T00:31:18.192Z,0.00
2018-06-08T00:32:18.070Z,0.00
2018-06-08T00:33:17.951Z,0.00
2018-06-08T00:34:17.828Z,0.00
2018-06-08T00:35:17.708Z,0.00
2018-06-08T00:36:17.581Z,0.00
2018-06-08T00:37:17.457Z,0.00
2018-06-08T00:38:17.337Z,0.00
2018-06-08T00:39:17.214Z,0.00
2018-06-08T00:40:17.092Z,0.00
2018-06-08T00:41:16.968Z,0.00
2018-06-08T00:42:16.846Z,0.00
2018-06-08T00:43:16.724Z,0.00
2018-06-08T00:44:16.603Z,0.00
2018-06-08T00:45:16.481Z,0.00
2018-06-08T00:46:16.358Z,0.00
2018-06-08T00:47:16.236Z,0.00
2018-06-08T00:48:16.113Z,0.00
2018-06-08T00:49:15.988Z,0.00
2018-06-08T00:50:15.866Z,0.00
2018-06-08T00:51:15.748Z,0.00
2018-06-08T00:52:15.626Z,0.00
2018-06-08T00:53:15.502Z,0.00
2018-06-08T00:54:15.381Z,0.00
2018-06-08T00:55:15.255Z,0.00
2018-06-08T00:56:15.143Z,0.00
2018-06-08T00:57:15.014Z,0.00
2018-06-08T00:58:14.888Z,0.00
2018-06-08T00:59:14.766Z,0.00
2018-06-08T01:00:14.643Z,0.00
2018-06-08T01:01:14.521Z,0.00
2018-06-08T01:02:14.396Z,0.00
2018-06-08T01:03:14.273Z,0.00
2018-06-08T01:04:14.151Z,0.00
2018-06-08T01:05:14.028Z,0.00
2018-06-08T01:06:13.905Z,0.00
2018-06-08T01:07:13.784Z,0.00
2018-06-08T01:08:13.664Z,0.00
2018-06-08T01:09:13.538Z,0.00
2018-06-08T01:10:13.418Z,0.00
2018-06-08T01:11:13.294Z,0.00
2018-06-08T01:12:13.173Z,0.00
2018-06-08T01:13:13.045Z,0.00
2018-06-08T01:14:12.926Z,0.00
2018-06-08T01:15:12.803Z,0.00
2018-06-08T01:16:12.681Z,0.00
2018-06-08T01:17:12.558Z,0.00
2018-06-08T01:18:12.438Z,0.00
2018-06-08T01:19:12.315Z,0.00
2018-06-08T01:20:12.189Z,0.00
2018-06-08T01:21:12.067Z,0.00
2018-06-08T01:22:11.945Z,0.00
2018-06-08T01:23:11.821Z,0.00
2018-06-08T01:24:11.704Z,0.00
2018-06-08T01:25:11.576Z,0.00
2018-06-08T01:26:11.455Z,0.00
2018-06-08T01:27:11.331Z,0.00
2018-06-08T01:28:11.209Z,0.00
2018-06-08T01:29:11.083Z,0.00
2018-06-08T01:30:10.964Z,0.00
2018-06-08T01:31:10.838Z,0.00
2018-06-08T01:32:10.718Z,0.00
2018-06-08T01:33:10.596Z,0.00
2018-06-08T01:34:10.471Z,0.00
2018-06-08T01:35:10.348Z,0.00
2018-06-08T01:36:10.227Z,0.00
2018-06-08T01:37:10.109Z,0.00
2018-06-08T01:38:09.980Z,0.00
2018-06-08T01:39:09.859Z,0.00
2018-06-08T01:40:09.736Z,0.00
2018-06-08T01:41:09.615Z,0.00
2018-06-08T01:42:09.491Z,0.00
2018-06-08T01:43:09.370Z,0.00
2018-06-08T01:44:09.245Z,0.00
2018-06-08T01:45:09.125Z,0.00
2018-06-08T01:46:09.000Z,0.00
2018-06-08T01:47:08.880Z,0.00
2018-06-08T01:48:08.756Z,0.00
2018-06-08T01:49:08.634Z,0.00
2018-06-08T01:50:08.512Z,0.00
2018-06-08T01:51:08.389Z,0.00
2018-06-08T01:52:08.265Z,0.00
2018-06-08T01:53:08.145Z,0.00
2018-06-08T01:54:08.020Z,0.00
2018-06-08T01:55:07.898Z,0.00
2018-06-08T01:56:07.779Z,0.00
2018-06-08T01:57:07.654Z,0.00
2018-06-08T01:58:07.530Z,0.00
2018-06-08T01:59:07.407Z,0.00
2018-06-08T02:00:07.284Z,0.00
2018-06-08T02:01:07.164Z,0.00
2018-06-08T02:02:07.038Z,0.00
2018-06-08T02:03:06.916Z,0.00
2018-06-08T02:04:06.792Z,0.00
2018-06-08T02:05:06.671Z,0.00
2018-06-08T02:06:06.551Z,0.00
2018-06-08T02:07:06.425Z,0.00
2018-06-08T02:08:06.312Z,0.00
2018-06-08T02:09:06.177Z,0.00
2018-06-08T02:10:06.054Z,0.00
2018-06-08T02:11:05.932Z,0.00
2018-06-08T02:12:05.811Z,0.00
2018-06-08T02:13:05.688Z,0.00
2018-06-08T02:14:05.564Z,0.00
2018-06-08T02:15:05.439Z,0.00
2018-06-08T02:16:05.317Z,0.00
2018-06-08T02:17:05.193Z,0.00
2018-06-08T02:18:05.071Z,0.00
2018-06-08T02:19:04.953Z,0.00
2018-06-08T02:20:04.826Z,0.00
2018-06-08T02:21:04.703Z,0.00
2018-06-08T02:22:04.578Z,0.00
2018-06-08T02:23:04.457Z,0.00
2018-06-08T02:24:04.334Z,0.00
2018-06-08T02:25:04.210Z,0.00
2018-06-08T02:26:04.089Z,0.00
2018-06-08T02:27:03.964Z,0.00
2018-06-08T02:28:03.840Z,0.00
2018-06-08T02:29:03.716Z,0.00
2018-06-08T02:30:03.596Z,0.00
2018-06-08T02:31:03.470Z,0.00
2018-06-08T02:32:03.349Z,0.00
2018-06-08T02:33:03.224Z,0.00
2018-06-08T02:34:03.101Z,0.00
2018-06-08T02:35:02.979Z,0.00
2018-06-08T02:36:02.856Z,0.00
2018-06-08T02:37:02.733Z,0.00
2018-06-08T02:38:02.608Z,0.00
2018-06-08T02:39:02.486Z,0.00
2018-06-08T02:40:02.368Z,0.00
2018-06-08T02:41:02.243Z,0.00
2018-06-08T02:42:02.117Z,0.00
2018-06-08T02:43:01.994Z,0.00
2018-06-08T02:44:01.873Z,0.00
2018-06-08T02:45:01.747Z,0.00
2018-06-08T02:46:01.623Z,0.00
2018-06-08T02:47:01.501Z,0.00
2018-06-08T02:48:01.381Z,0.00
2018-06-08T02:49:01.256Z,0.00
2018-06-08T02:50:01.143Z,0.00
2018-06-08T02:51:01.008Z,0.00
2018-06-08T02:52:00.886Z,0.00
2018-06-08T02:53:00.761Z,0.00
2018-06-08T02:54:00.640Z,0.00
2018-06-08T02:55:00.514Z,0.00
2018-06-08T02:56:00.392Z,0.00
2018-06-08T02:57:00.275Z,0.00
2018-06-08T02:58:00.145Z,0.00
2018-06-08T02:59:00.029Z,0.00
2018-06-08T02:59:59.907Z,0.00
2018-06-08T03:00:59.777Z,0.00
2018-06-08T03:01:59.662Z,4.00
2018-06-08T03:02:59.534Z,4.00
2018-06-08T03:03:59.411Z,0.00
2018-06-08T03:04:59.283Z,0.00
2018-06-08T03:05:59.162Z,4.00
2018-06-08T03:06:59.036Z,4.00
2018-06-08T03:07:58.915Z,4.00
2018-06-08T03:08:58.791Z,4.00
2018-06-08T03:09:58.666Z,4.00
2018-06-08T03:10:58.590Z,8.00
2018-06-08T03:11:58.461Z,4.00
2018-06-08T03:12:58.299Z,12.00
2018-06-08T03:13:58.174Z,8.00
2018-06-08T03:14:58.051Z,12.00
2018-06-08T03:15:57.926Z,12.00
2018-06-08T03:16:57.804Z,16.00
2018-06-08T03:17:57.684Z,16.00
2018-06-08T03:18:57.557Z,20.00
2018-06-08T03:19:57.433Z,24.00
2018-06-08T03:20:57.312Z,24.00
2018-06-08T03:21:57.186Z,28.00
2018-06-08T03:22:57.063Z,32.00
2018-06-08T03:23:56.946Z,36.00
2018-06-08T03:24:56.817Z,40.00
2018-06-08T03:25:56.700Z,44.00
2018-06-08T03:26:56.574Z,52.00
2018-06-08T03:27:56.450Z,52.00
2018-06-08T03:28:56.327Z,60.00
2018-06-08T03:29:56.871Z,60.00
2018-06-08T03:30:56.077Z,64.00
2018-06-08T03:31:55.956Z,68.00
2018-06-08T03:32:55.834Z,68.00
2018-06-08T03:33:55.708Z,72.00
2018-06-08T03:34:55.588Z,76.00
2018-06-08T03:35:55.513Z,84.00
2018-06-08T03:36:55.339Z,88.00
2018-06-08T03:37:55.216Z,96.00
2018-06-08T03:38:55.094Z,108.00
2018-06-08T03:39:54.969Z,116.00
2018-06-08T03:40:54.843Z,124.00
2018-06-08T03:41:54.724Z,128.00
2018-06-08T03:42:54.599Z,132.00
2018-06-08T03:43:54.476Z,144.00
2018-06-08T03:44:54.351Z,152.00
2018-06-08T03:45:54.228Z,152.00
2018-06-08T03:46:54.105Z,160.00
2018-06-08T03:47:53.982Z,164.00
2018-06-08T03:48:53.865Z,172.00
2018-06-08T03:49:53.736Z,180.00
2018-06-08T03:50:53.612Z,188.00
2018-06-08T03:51:53.487Z,200.00
2018-06-08T03:52:53.366Z,208.00
2018-06-08T03:53:53.244Z,224.00
2018-06-08T03:54:53.121Z,232.00
2018-06-08T03:55:53.004Z,244.00
2018-06-08T03:56:52.873Z,252.00
2018-06-08T03:57:52.753Z,260.00
2018-06-08T03:58:52.630Z,268.00
2018-06-08T03:59:52.502Z,272.00
2018-06-08T04:00:52.379Z,280.00
2018-06-08T04:01:52.262Z,288.00
2018-06-08T04:02:52.135Z,296.00
2018-06-08T04:03:52.013Z,300.00
2018-06-08T04:04:51.890Z,304.00
2018-06-08T04:05:51.765Z,312.00
2018-06-08T04:06:51.640Z,328.00
2018-06-08T04:07:51.522Z,340.00
2018-06-08T04:08:51.396Z,352.00
2018-06-08T04:09:51.271Z,364.00
2018-06-08T04:10:51.148Z,340.00
2018-06-08T04:11:51.031Z,348.00
2018-06-08T04:12:50.901Z,360.00
2018-06-08T04:13:50.778Z,372.00
2018-06-08T04:14:50.654Z,384.00
2018-06-08T04:15:50.533Z,392.00
2018-06-08T04:16:50.410Z,404.00
2018-06-08T04:17:50.286Z,412.00
2018-06-08T04:18:50.161Z,420.00
2018-06-08T04:19:50.039Z,432.00
2018-06-08T04:20:49.917Z,444.00
2018-06-08T04:21:49.791Z,452.00
2018-06-08T04:22:49.671Z,464.00
2018-06-08T04:23:49.547Z,480.00
2018-06-08T04:24:49.424Z,492.00
2018-06-08T04:25:49.323Z,500.00
2018-06-08T04:26:49.224Z,508.00
2018-06-08T04:27:49.053Z,512.00
2018-06-08T04:28:48.929Z,528.00
2018-06-08T04:29:48.813Z,532.00
2018-06-08T04:30:48.685Z,544.00
2018-06-08T04:31:48.564Z,552.00
2018-06-08T04:32:48.451Z,576.00
2018-06-08T04:33:48.318Z,596.00
2018-06-08T04:34:48.191Z,612.00
2018-06-08T04:35:48.068Z,628.00
2018-06-08T04:36:47.950Z,644.00
2018-06-08T04:37:47.827Z,660.00
2018-06-08T04:38:47.706Z,668.00
2018-06-08T04:39:47.577Z,672.00
2018-06-08T04:40:47.458Z,676.00
2018-06-08T04:41:47.330Z,680.00
2018-06-08T04:42:47.206Z,672.00
2018-06-08T04:43:47.088Z,672.00
2018-06-08T04:44:46.963Z,676.00
2018-06-08T04:45:46.857Z,688.00
2018-06-08T04:46:46.716Z,708.00
2018-06-08T04:47:46.596Z,728.00
2018-06-08T04:48:46.469Z,752.00
2018-06-08T04:49:46.349Z,780.00
2018-06-08T04:50:46.225Z,800.00
2018-06-08T04:51:46.193Z,832.00
2018-06-08T04:52:45.978Z,860.00
2018-06-08T04:53:45.856Z,888.00
2018-06-08T04:54:45.735Z,904.00
2018-06-08T04:55:45.612Z,924.00
2018-06-08T04:56:45.488Z,940.00
2018-06-08T04:57:45.366Z,964.00
2018-06-08T04:58:45.242Z,980.00
2018-06-08T04:59:45.121Z,1004.00
2018-06-08T05:00:45.000Z,1028.00
2018-06-08T05:01:44.873Z,1048.00
2018-06-08T05:02:44.756Z,1072.00
2018-06-08T05:03:44.634Z,1092.00
2018-06-08T05:04:44.518Z,1116.00
2018-06-08T05:05:44.382Z,1132.00
2018-06-08T05:06:44.261Z,1144.00
2018-06-08T05:07:44.139Z,1168.00
2018-06-08T05:08:44.016Z,1200.00
2018-06-08T05:09:43.921Z,1236.00
2018-06-08T05:10:43.773Z,1268.00
2018-06-08T05:11:43.650Z,1288.00
2018-06-08T05:12:43.527Z,1296.00
2018-06-08T05:13:43.402Z,1300.00
2018-06-08T05:14:43.283Z,1300.00
2018-06-08T05:15:43.164Z,1308.00
2018-06-08T05:16:43.036Z,1324.00
2018-06-08T05:17:42.914Z,1340.00
2018-06-08T05:18:42.794Z,1360.00
2018-06-08T05:19:42.672Z,1392.00
2018-06-08T05:20:42.548Z,1424.00
2018-06-08T05:21:42.428Z,1448.00
2018-06-08T05:22:42.310Z,1472.00
2018-06-08T05:23:42.181Z,1504.00
2018-06-08T05:24:42.061Z,1536.00
2018-06-08T05:25:41.937Z,1560.00
2018-06-08T05:26:41.816Z,1576.00
2018-06-08T05:27:41.696Z,1580.00
2018-06-08T05:28:41.574Z,1576.00
2018-06-08T05:29:41.451Z,1568.00
2018-06-08T05:30:41.333Z,1580.00
2018-06-08T05:31:41.224Z,1620.00
2018-06-08T05:32:41.087Z,1664.00
2018-06-08T05:33:40.965Z,1704.00
2018-06-08T05:34:40.843Z,1732.00
2018-06-08T05:35:40.720Z,1744.00
2018-06-08T05:36:40.597Z,1760.00
2018-06-08T05:37:40.476Z,1776.00
2018-06-08T05:38:40.353Z,1792.00
2018-06-08T05:39:40.234Z,1800.00
2018-06-08T05:40:40.109Z,1792.00
2018-06-08T05:41:39.986Z,1792.00
2018-06-08T05:42:40.006Z,1812.00
2018-06-08T05:43:39.742Z,1832.00
2018-06-08T05:44:39.621Z,1840.00
2018-06-08T05:45:39.500Z,1824.00
2018-06-08T05:46:39.377Z,1784.00
2018-06-08T05:47:39.256Z,1740.00
2018-06-08T05:48:39.134Z,1720.00
2018-06-08T05:49:39.013Z,1720.00
2018-06-08T05:50:38.892Z,1696.00
2018-06-08T05:51:38.772Z,1648.00
2018-06-08T05:52:38.649Z,1572.00
2018-06-08T05:53:38.537Z,1496.00
2018-06-08T05:54:38.402Z,1444.00
2018-06-08T05:55:38.284Z,1444.00
2018-06-08T05:56:38.159Z,1476.00
2018-06-08T05:57:38.038Z,1528.00
2018-06-08T05:58:37.919Z,1616.00
2018-06-08T05:59:37.795Z,1708.00
2018-06-08T06:00:37.674Z,1800.00
2018-06-08T06:01:37.600Z,1828.00
2018-06-08T06:02:37.429Z,1784.00
2018-06-08T06:03:37.309Z,1760.00
2018-06-08T06:04:37.203Z,1812.00
2018-06-08T06:05:37.073Z,1904.00
2018-06-08T06:06:36.942Z,2060.00
2018-06-08T06:07:36.855Z,2212.00
2018-06-08T06:08:36.697Z,2328.00
2018-06-08T06:09:36.577Z,2348.00
2018-06-08T06:10:36.453Z,2308.00
2018-06-08T06:11:36.336Z,2256.00
2018-06-08T06:12:36.211Z,2256.00
2018-06-08T06:13:36.090Z,2344.00
2018-06-08T06:14:35.971Z,2460.00
2018-06-08T06:15:35.848Z,2556.00
2018-06-08T06:16:35.725Z,2612.00
2018-06-08T06:17:35.604Z,2648.00
2018-06-08T06:18:35.482Z,2700.00
2018-06-08T06:19:35.359Z,2748.00
2018-06-08T06:20:35.240Z,2780.00
2018-06-08T06:21:35.116Z,2812.00
2018-06-08T06:22:34.996Z,2828.00
2018-06-08T06:23:34.873Z,2852.00
2018-06-08T06:24:34.752Z,2880.00
2018-06-08T06:25:34.632Z,2908.00
2018-06-08T06:26:34.509Z,2936.00
2018-06-08T06:27:34.386Z,2960.00
2018-06-08T06:28:34.266Z,2996.00
2018-06-08T06:29:34.145Z,3024.00
2018-06-08T06:30:34.022Z,3048.00
2018-06-08T06:31:33.900Z,3068.00
2018-06-08T06:32:33.778Z,3084.00
2018-06-08T06:33:33.657Z,3104.00
2018-06-08T06:34:33.538Z,3128.00
2018-06-08T06:35:33.414Z,3160.00
2018-06-08T06:36:33.323Z,3176.00
2018-06-08T06:37:33.176Z,3180.00
2018-06-08T06:38:33.048Z,3184.00
2018-06-08T06:39:32.932Z,3176.00
2018-06-08T06:40:32.807Z,3172.00
2018-06-08T06:41:32.688Z,3184.00
2018-06-08T06:42:32.568Z,3184.00
2018-06-08T06:43:32.443Z,3176.00
2018-06-08T06:44:32.321Z,3176.00
2018-06-08T06:45:32.199Z,3172.00
2018-06-08T06:46:32.079Z,3180.00
2018-06-08T06:47:31.957Z,3192.00
2018-06-08T06:48:31.837Z,3208.00
2018-06-08T06:49:31.718Z,3228.00
2018-06-08T06:50:31.595Z,3240.00
2018-06-08T06:51:31.490Z,3248.00
2018-06-08T06:52:31.350Z,3252.00
2018-06-08T06:53:31.234Z,3256.00
2018-06-08T06:54:31.106Z,3252.00
2018-06-08T06:55:30.984Z,3244.00
2018-06-08T06:56:30.865Z,3236.00
2018-06-08T06:57:30.742Z,3284.00
2018-06-08T06:58:30.626Z,3332.00
2018-06-08T06:59:30.496Z,3348.00
2018-06-08T07:00:30.379Z,3340.00
2018-06-08T07:01:30.261Z,3336.00
2018-06-08T07:02:30.134Z,3320.00
2018-06-08T07:03:30.016Z,3316.00
2018-06-08T07:04:29.948Z,3312.00
2018-06-08T07:05:29.771Z,3304.00
2018-06-08T07:06:29.650Z,3304.00
2018-06-08T07:07:29.528Z,3320.00
2018-06-08T07:08:29.407Z,3356.00
2018-06-08T07:09:29.284Z,3392.00
2018-06-08T07:10:29.165Z,3432.00
2018-06-08T07:11:29.044Z,3496.00
2018-06-08T07:12:28.925Z,3568.00
2018-06-08T07:13:28.800Z,3640.00
2018-06-08T07:14:28.705Z,3716.00
2018-06-08T07:15:28.559Z,3792.00
2018-06-08T07:16:28.437Z,3808.00
2018-06-08T07:17:28.321Z,3728.00
2018-06-08T07:18:28.194Z,3644.00
2018-06-08T07:19:28.074Z,3572.00
2018-06-08T07:20:27.951Z,3488.00
2018-06-08T07:21:27.832Z,3468.00
2018-06-08T07:22:27.709Z,3488.00
2018-06-08T07:23:27.586Z,3468.00
2018-06-08T07:24:27.466Z,3488.00
2018-06-08T07:25:27.348Z,3536.00
2018-06-08T07:26:27.222Z,3556.00
2018-06-08T07:27:27.105Z,3536.00
2018-06-08T07:28:26.984Z,3524.00
2018-06-08T07:29:26.859Z,3504.00
2018-06-08T07:30:26.740Z,3448.00
2018-06-08T07:31:26.635Z,3364.00
2018-06-08T07:32:26.497Z,3272.00
2018-06-08T07:33:26.379Z,3168.00
2018-06-08T07:34:26.257Z,3080.00
2018-06-08T07:35:26.134Z,3008.00
2018-06-08T07:36:26.023Z,2924.00
2018-06-08T07:37:25.892Z,2824.00
2018-06-08T07:38:25.769Z,2716.00
2018-06-08T07:39:25.651Z,2632.00
2018-06-08T07:40:25.535Z,2624.00
2018-06-08T07:41:25.407Z,2716.00
2018-06-08T07:42:25.287Z,2852.00
2018-06-08T07:43:25.169Z,2992.00
2018-06-08T07:44:25.046Z,3092.00
2018-06-08T07:45:24.925Z,3132.00
2018-06-08T07:46:24.801Z,3140.00
2018-06-08T07:47:24.682Z,3160.00
2018-06-08T07:48:24.559Z,3200.00
2018-06-08T07:49:24.440Z,3252.00
2018-06-08T07:50:24.317Z,3300.00
2018-06-08T07:51:24.202Z,3368.00
2018-06-08T07:52:24.078Z,3496.00
2018-06-08T07:53:23.957Z,3624.00
2018-06-08T07:54:23.837Z,3752.00
2018-06-08T07:55:23.716Z,3896.00
2018-06-08T07:56:23.592Z,4068.00
2018-06-08T07:57:23.471Z,4248.00
2018-06-08T07:58:23.351Z,4424.00
2018-06-08T07:59:23.233Z,4564.00
2018-06-08T08:00:23.206Z,4652.00
2018-06-08T08:01:23.183Z,4696.00
2018-06-08T08:02:22.872Z,4688.00
2018-06-08T08:03:22.753Z,4644.00
2018-06-08T08:04:22.628Z,4628.00
2018-06-08T08:05:22.507Z,4708.00
2018-06-08T08:06:22.387Z,4780.00
2018-06-08T08:07:22.271Z,4856.00
2018-06-08T08:08:22.144Z,4916.00
2018-06-08T08:09:22.024Z,4980.00
2018-06-08T08:10:21.904Z,5044.00
2018-06-08T08:11:21.786Z,5068.00
2018-06-08T08:12:21.665Z,5132.00
2018-06-08T08:13:21.545Z,5148.00
2018-06-08T08:14:21.425Z,5212.00
2018-06-08T08:15:21.302Z,5328.00
2018-06-08T08:16:21.182Z,5432.00
2018-06-08T08:17:21.061Z,5480.00
2018-06-08T08:18:20.940Z,5484.00
2018-06-08T08:19:20.857Z,5456.00
2018-06-08T08:20:20.701Z,5408.00
2018-06-08T08:21:20.581Z,5384.00
2018-06-08T08:22:20.462Z,5460.00
2018-06-08T08:23:20.345Z,5464.00
2018-06-08T08:24:20.221Z,5484.00
2018-06-08T08:25:20.103Z,5480.00
2018-06-08T08:26:19.982Z,5596.00
2018-06-08T08:27:19.862Z,5472.00
2018-06-08T08:28:19.744Z,5460.00
2018-06-08T08:29:19.623Z,5392.00
2018-06-08T08:30:19.504Z,5432.00
2018-06-08T08:31:19.386Z,5288.00
2018-06-08T08:32:19.261Z,5212.00
2018-06-08T08:33:19.143Z,5124.00
2018-06-08T08:34:19.075Z,4876.00
2018-06-08T08:35:18.916Z,4708.00
2018-06-08T08:36:18.784Z,4416.00
2018-06-08T08:37:18.666Z,4400.00
2018-06-08T08:38:18.547Z,4364.00
2018-06-08T08:39:18.428Z,4488.00
2018-06-08T08:40:18.305Z,4644.00
2018-06-08T08:41:18.188Z,4820.00
2018-06-08T08:42:18.068Z,5052.00
2018-06-08T08:43:17.947Z,5276.00
2018-06-08T08:44:17.826Z,5660.00
2018-06-08T08:45:17.709Z,5636.00
2018-06-08T08:46:17.651Z,5480.00
2018-06-08T08:47:17.471Z,5096.00
2018-06-08T08:48:17.349Z,4772.00
2018-06-08T08:49:17.232Z,4876.00
2018-06-08T08:50:17.109Z,4884.00
2018-06-08T08:51:16.991Z,4960.00
2018-06-08T08:52:16.871Z,4848.00
2018-06-08T08:53:16.754Z,4788.00
2018-06-08T08:54:16.632Z,4752.00
2018-06-08T08:55:16.515Z,4636.00
2018-06-08T08:56:16.394Z,4464.00
2018-06-08T08:57:16.276Z,4284.00
2018-06-08T08:58:16.156Z,4284.00
2018-06-08T08:59:16.036Z,4540.00
2018-06-08T09:00:15.915Z,4668.00
2018-06-08T09:01:15.801Z,5028.00
2018-06-08T09:02:15.678Z,5396.00
2018-06-08T09:03:15.558Z,5692.00
2018-06-08T09:04:15.440Z,5796.00
2018-06-08T09:05:15.316Z,5608.00
2018-06-08T09:06:15.200Z,5180.00
2018-06-08T09:07:15.080Z,4688.00
2018-06-08T09:08:14.961Z,4352.00
2018-06-08T09:09:14.838Z,4248.00
2018-06-08T09:10:14.721Z,4384.00
2018-06-08T09:11:14.603Z,4512.00
2018-06-08T09:12:14.484Z,4780.00
2018-06-08T09:13:14.362Z,5116.00
2018-06-08T09:14:14.244Z,5272.00
2018-06-08T09:15:14.122Z,5412.00
2018-06-08T09:16:14.005Z,5520.00
2018-06-08T09:17:13.884Z,5560.00
2018-06-08T09:18:13.767Z,5548.00
2018-06-08T09:19:13.678Z,5448.00
2018-06-08T09:20:14.515Z,5436.00
2018-06-08T09:21:13.406Z,5576.00
2018-06-08T09:22:13.284Z,5836.00
2018-06-08T09:23:13.168Z,6344.00
2018-06-08T09:24:13.048Z,6316.00
2018-06-08T09:25:12.927Z,5864.00
2018-06-08T09:26:12.810Z,5824.00
2018-06-08T09:27:12.687Z,5808.00
2018-06-08T09:28:12.573Z,6048.00
2018-06-08T09:29:12.452Z,6172.00
2018-06-08T09:30:12.331Z,5836.00
2018-06-08T09:31:12.215Z,5116.00
2018-06-08T09:32:12.092Z,4160.00
2018-06-08T09:33:12.030Z,3624.00
2018-06-08T09:34:11.852Z,3564.00
2018-06-08T09:35:11.738Z,3940.00
2018-06-08T09:36:11.615Z,4748.00
2018-06-08T09:37:11.499Z,5424.00
2018-06-08T09:38:11.376Z,5968.00
2018-06-08T09:39:11.261Z,6444.00
2018-06-08T09:40:11.139Z,6500.00
2018-06-08T09:41:11.019Z,6256.00
2018-06-08T09:42:10.901Z,5748.00
2018-06-08T09:43:10.782Z,4964.00
2018-06-08T09:44:10.667Z,4020.00
2018-06-08T09:45:10.546Z,3516.00
2018-06-08T09:46:10.428Z,3448.00
2018-06-08T09:47:10.306Z,3524.00
2018-06-08T09:48:10.185Z,3696.00
2018-06-08T09:49:10.068Z,3928.00
2018-06-08T09:50:09.948Z,3916.00
2018-06-08T09:51:09.831Z,3832.00
2018-06-08T09:52:09.710Z,3820.00
2018-06-08T09:53:09.590Z,3696.00
2018-06-08T09:54:09.473Z,3536.00
2018-06-08T09:55:09.354Z,3372.00
2018-06-08T09:56:09.232Z,3380.00
2018-06-08T09:57:09.113Z,3412.00
2018-06-08T09:58:08.993Z,3524.00
2018-06-08T09:59:08.878Z,3868.00
2018-06-08T10:00:08.757Z,4592.00
2018-06-08T10:01:08.638Z,5220.00
2018-06-08T10:02:08.519Z,5488.00
2018-06-08T10:03:08.397Z,5740.00
2018-06-08T10:04:08.280Z,5896.00
2018-06-08T10:05:08.158Z,6112.00
2018-06-08T10:06:08.039Z,7292.00
2018-06-08T10:07:07.923Z,8108.00
2018-06-08T10:08:07.800Z,8348.00
2018-06-08T10:09:07.680Z,7684.00
2018-06-08T10:10:07.564Z,6568.00
2018-06-08T10:11:07.446Z,5432.00
2018-06-08T10:12:07.323Z,5360.00
2018-06-08T10:13:07.207Z,6144.00
2018-06-08T10:14:07.088Z,6892.00
2018-06-08T10:15:06.967Z,7120.00
2018-06-08T10:16:06.849Z,6544.00
2018-06-08T10:17:06.734Z,6028.00
2018-06-08T10:18:06.611Z,5328.00
2018-06-08T10:19:06.494Z,5008.00
2018-06-08T10:20:06.373Z,5336.00
2018-06-08T10:21:06.256Z,5932.00
2018-06-08T10:22:06.148Z,6096.00
2018-06-08T10:23:06.019Z,5948.00
2018-06-08T10:24:05.900Z,5476.00
2018-06-08T10:25:05.781Z,5168.00
2018-06-08T10:26:05.663Z,4872.00
2018-06-08T10:27:05.542Z,4792.00
2018-06-08T10:28:05.425Z,5044.00
2018-06-08T10:29:05.306Z,5676.00
2018-06-08T10:30:05.184Z,6736.00
2018-06-08T10:31:05.070Z,8012.00
2018-06-08T10:32:04.953Z,8076.00
2018-06-08T10:33:04.830Z,7416.00
2018-06-08T10:34:04.724Z,7400.00
2018-06-08T10:35:04.595Z,7256.00
2018-06-08T10:36:04.476Z,7684.00
2018-06-08T10:37:04.354Z,8140.00
2018-06-08T10:38:04.241Z,7620.00
2018-06-08T10:39:04.117Z,7096.00
2018-06-08T10:40:04.061Z,6520.00
2018-06-08T10:41:03.883Z,5760.00
2018-06-08T10:42:03.763Z,5296.00
2018-06-08T10:43:03.645Z,5388.00
2018-06-08T10:44:03.527Z,5676.00
2018-06-08T10:45:03.409Z,5616.00
2018-06-08T10:46:03.290Z,5200.00
2018-06-08T10:47:03.171Z,4736.00
2018-06-08T10:48:03.053Z,4528.00
2018-06-08T10:49:02.934Z,4476.00
2018-06-08T10:50:02.815Z,4540.00
2018-06-08T10:51:02.697Z,5000.00
2018-06-08T10:52:02.575Z,6172.00
2018-06-08T10:53:02.457Z,7428.00
2018-06-08T10:54:02.340Z,8536.00
2018-06-08T10:55:02.222Z,9536.00
2018-06-08T10:56:02.106Z,9412.00
2018-06-08T10:57:01.985Z,8880.00
2018-06-08T10:58:01.865Z,8320.00
2018-06-08T10:59:01.748Z,7556.00
2018-06-08T11:00:01.635Z,6696.00
2018-06-08T11:01:01.511Z,5576.00
2018-06-08T11:02:01.393Z,4792.00
2018-06-08T11:03:01.272Z,4292.00
2018-06-08T11:04:01.154Z,3860.00
2018-06-08T11:05:01.035Z,3512.00
2018-06-08T11:06:00.917Z,3396.00
2018-06-08T11:07:00.799Z,3340.00
2018-06-08T11:08:00.678Z,3492.00
2018-06-08T11:09:00.561Z,3988.00
2018-06-08T11:10:00.441Z,4540.00
2018-06-08T11:11:00.325Z,4864.00
2018-06-08T11:12:00.207Z,4728.00
2018-06-08T11:13:00.086Z,4068.00
2018-06-08T11:13:59.964Z,3268.00
2018-06-08T11:14:59.849Z,2792.00
2018-06-08T11:15:59.731Z,2656.00
2018-06-08T11:16:59.610Z,2828.00
2018-06-08T11:17:59.491Z,3188.00
2018-06-08T11:18:59.369Z,3632.00
2018-06-08T11:19:59.251Z,3784.00
2018-06-08T11:20:59.128Z,4068.00
2018-06-08T11:21:59.012Z,4376.00
2018-06-08T11:22:58.892Z,4528.00
2018-06-08T11:23:58.774Z,4732.00
2018-06-08T11:24:58.653Z,4784.00
2018-06-08T11:25:58.533Z,4692.00
2018-06-08T11:26:58.470Z,4628.00
2018-06-08T11:27:58.295Z,4828.00
2018-06-08T11:28:58.176Z,5092.00
2018-06-08T11:29:58.057Z,5080.00
2018-06-08T11:30:57.934Z,4916.00
2018-06-08T11:31:57.816Z,4768.00
2018-06-08T11:32:57.694Z,4680.00
2018-06-08T11:33:57.574Z,4636.00
2018-06-08T11:34:57.459Z,4412.00
2018-06-08T11:35:57.339Z,4220.00
2018-06-08T11:36:57.218Z,4084.00
2018-06-08T11:37:57.103Z,4216.00
2018-06-08T11:38:56.981Z,4440.00
2018-06-08T11:39:56.859Z,4532.00
2018-06-08T11:40:56.740Z,4560.00
2018-06-08T11:41:56.619Z,4544.00
2018-06-08T11:42:56.508Z,4336.00
2018-06-08T11:43:56.381Z,3984.00
2018-06-08T11:44:56.263Z,3664.00
2018-06-08T11:45:56.200Z,3516.00
2018-06-08T11:46:56.026Z,3512.00
2018-06-08T11:47:55.903Z,3484.00
2018-06-08T11:48:55.791Z,3768.00
2018-06-08T11:49:55.668Z,4236.00
2018-06-08T11:50:55.548Z,4708.00
2018-06-08T11:51:55.427Z,5236.00
2018-06-08T11:52:55.304Z,5692.00
2018-06-08T11:53:55.187Z,6424.00
2018-06-08T11:54:55.065Z,6604.00
2018-06-08T11:55:54.947Z,6520.00
2018-06-08T11:56:54.830Z,5920.00
2018-06-08T11:57:54.710Z,5368.00
2018-06-08T11:58:54.590Z,5060.00
2018-06-08T11:59:54.471Z,4664.00
2018-06-08T12:00:54.353Z,4268.00
2018-06-08T12:01:54.252Z,3964.00
2018-06-08T12:02:54.114Z,3748.00
2018-06-08T12:03:54.011Z,3512.00
2018-06-08T12:04:53.885Z,3532.00
2018-06-08T12:05:53.757Z,3612.00
2018-06-08T12:06:53.641Z,3708.00
2018-06-08T12:07:53.519Z,4160.00
2018-06-08T12:08:53.400Z,4768.00
2018-06-08T12:09:53.282Z,5516.00
2018-06-08T12:10:53.163Z,6112.00
2018-06-08T12:11:53.044Z,6084.00
2018-06-08T12:12:52.926Z,5284.00
2018-06-08T12:13:52.807Z,4612.00
2018-06-08T12:14:52.688Z,4440.00
2018-06-08T12:15:52.565Z,4172.00
2018-06-08T12:16:52.447Z,3956.00
2018-06-08T12:17:52.337Z,3592.00
2018-06-08T12:18:52.213Z,3112.00
2018-06-08T12:19:52.091Z,2764.00
2018-06-08T12:20:51.974Z,2504.00
2018-06-08T12:21:51.852Z,2316.00
2018-06-08T12:22:51.733Z,2192.00
2018-06-08T12:23:51.616Z,2140.00
2018-06-08T12:24:51.497Z,2348.00
2018-06-08T12:25:51.377Z,2688.00